Time;durP1;ratioP1;P1;durP2;ratioP2;P2;SDS_P1;SDS_P2;PMS_P1;PMS_P2;Temp;Humidity;BMP_temperature;BMP_pressure;BME280_temperature;BME280_humidity;BME280_pressure;Samples;Min_cycle;Max_cycle;Signal;HPM_P1;HPM_P2
2024/03/28 00:02:11;;;;;;;12.88;5.55;;;;;;;-141.50;100.00;63355.56;4921082;28;20094;-84
2024/03/28 00:04:37;;;;;;;9.93;4.97;;;;;;;-141.50;100.00;63355.56;4916718;29;20070;-83
2024/03/28 00:07:03;;;;;;;11.38;5.38;;;;;;;-141.50;100.00;63355.56;4916480;29;20056;-84
2024/03/28 00:09:29;;;;;;;12.93;5.45;;;;;;;-141.50;100.00;63355.56;4920207;29;20111;-82
2024/03/28 00:11:55;;;;;;;13.80;5.43;;;;;;;-141.50;100.00;63355.56;4916903;29;20111;-83
2024/03/28 00:14:21;;;;;;;10.57;5.05;;;;;;;-141.50;100.00;63355.56;4919488;29;20050;-81
2024/03/28 00:16:47;;;;;;;14.82;5.45;;;;;;;-141.50;100.00;63355.56;4911604;29;20083;-82
2024/03/28 00:19:13;;;;;;;8.85;4.72;;;;;;;-141.50;100.00;63355.56;4917234;29;20071;-85
2024/03/28 00:21:39;;;;;;;13.35;5.28;;;;;;;-141.50;100.00;63355.56;4919597;29;20513;-82
2024/03/28 00:24:05;;;;;;;11.18;5.43;;;;;;;-141.50;100.00;63355.56;4913397;29;20076;-84
2024/03/28 00:26:32;;;;;;;11.18;5.43;;;;;;;-141.50;100.00;63355.56;4934790;28;20095;-83
2024/03/28 00:28:58;;;;;;;13.43;5.20;;;;;;;-141.50;100.00;63355.56;4912383;29;20060;-84
2024/03/28 00:31:25;;;;;;;14.88;5.32;;;;;;;-141.50;100.00;63355.56;4919487;29;20111;-81
2024/03/28 00:33:52;;;;;;;10.38;5.20;;;;;;;-141.50;100.00;63355.56;4916573;29;20099;-81
2024/03/28 00:36:18;;;;;;;9.50;4.82;;;;;;;-141.50;100.00;63355.56;4916978;29;20043;-83
2024/03/28 00:38:44;;;;;;;15.27;5.40;;;;;;;-141.50;100.00;63355.56;4916754;29;20505;-83
2024/03/28 00:41:10;;;;;;;9.68;5.10;;;;;;;-141.50;100.00;63355.56;4918103;29;20416;-82
2024/03/28 00:43:36;;;;;;;17.67;5.43;;;;;;;-141.50;100.00;63355.56;4918474;29;20048;-83
2024/03/28 00:46:02;;;;;;;14.82;5.85;;;;;;;-141.50;100.00;63355.56;4914602;29;20051;-84
2024/03/28 00:48:28;;;;;;;12.80;5.78;;;;;;;-141.50;100.00;63355.56;4914536;29;20078;-84
2024/03/28 00:50:55;;;;;;;13.40;5.32;;;;;;;-141.50;100.00;63355.56;4919763;29;20055;-83
2024/03/28 00:53:22;;;;;;;14.32;5.32;;;;;;;-141.50;100.00;63355.56;4933101;28;20063;-83
2024/03/28 00:55:48;;;;;;;13.48;5.80;;;;;;;-141.50;100.00;63355.56;4911010;29;20102;-84
2024/03/28 00:58:15;;;;;;;14.25;5.18;;;;;;;-141.50;100.00;63355.56;4908410;29;20062;-83
2024/03/28 01:00:42;;;;;;;10.05;5.10;;;;;;;-141.50;100.00;63355.56;4913999;29;20052;-84
2024/03/28 01:03:08;;;;;;;10.85;5.35;;;;;;;-141.50;100.00;63355.56;4916455;28;20733;-84
2024/03/28 01:05:34;;;;;;;9.65;5.10;;;;;;;-141.50;100.00;63355.56;4907183;29;20205;-83
2024/03/28 01:08:00;;;;;;;10.30;5.25;;;;;;;-141.50;100.00;63355.56;4916715;28;20062;-84
2024/03/28 01:10:27;;;;;;;10.30;5.00;;;;;;;-141.50;100.00;63355.56;4913624;29;20130;-82
2024/03/28 01:12:52;;;;;;;9.32;5.43;;;;;;;-141.50;100.00;63355.56;4914015;29;20055;-83
2024/03/28 01:15:18;;;;;;;8.57;4.80;;;;;;;-141.50;100.00;63355.56;4913692;29;20406;-84
2024/03/28 01:17:45;;;;;;;7.22;4.68;;;;;;;-141.50;100.00;63355.56;4916318;29;20064;-83
2024/03/28 01:20:11;;;;;;;6.63;3.80;;;;;;;-141.50;100.00;63355.56;4912684;28;20048;-87
2024/03/28 01:22:38;;;;;;;6.07;3.97;;;;;;;-141.50;100.00;63355.56;4912925;29;20061;-86
2024/03/28 01:25:07;;;;;;;6.35;3.83;;;;;;;-141.50;100.00;63355.56;4914329;29;20111;-81
2024/03/28 01:27:40;;;;;;;5.63;3.97;;;;;;;-141.50;100.00;63355.56;4917459;29;20056;-86
2024/03/28 01:30:08;;;;;;;5.60;3.42;;;;;;;-141.50;100.00;63355.56;4916413;29;20070;-82
2024/03/28 01:32:34;;;;;;;9.05;3.40;;;;;;;-141.50;100.00;63355.56;4915629;29;20048;-83
2024/03/28 01:35:01;;;;;;;4.65;2.53;;;;;;;-141.50;100.00;63355.56;4915083;29;20091;-81
2024/03/28 01:37:27;;;;;;;4.25;2.70;;;;;;;-141.50;100.00;63355.56;4914742;29;20044;-82
2024/03/28 01:39:53;;;;;;;3.15;2.20;;;;;;;-141.50;100.00;63355.56;4915712;29;20206;-81
2024/03/28 01:42:18;;;;;;;3.78;2.20;;;;;;;-141.50;100.00;63355.56;4917886;29;20100;-84
2024/03/28 01:44:45;;;;;;;3.17;2.10;;;;;;;-141.50;100.00;63355.56;4912371;29;20051;-82
2024/03/28 01:47:11;;;;;;;3.28;2.20;;;;;;;-141.50;100.00;63355.56;4905428;29;20062;-82
2024/03/28 01:49:37;;;;;;;2.17;1.52;;;;;;;-141.50;100.00;63355.56;4901736;29;20056;-83
2024/03/28 01:52:05;;;;;;;2.10;1.48;;;;;;;-141.50;100.00;63355.56;4917577;28;20719;-83
2024/03/28 01:54:34;;;;;;;3.20;1.80;;;;;;;-141.50;100.00;63355.56;4914257;29;20051;-80
2024/03/28 01:57:04;;;;;;;2.90;1.50;;;;;;;-141.50;100.00;63355.56;4919133;29;20110;-84
2024/03/28 01:59:31;;;;;;;1.92;1.48;;;;;;;-141.50;100.00;63355.56;4918987;29;20043;-84
2024/03/28 02:01:57;;;;;;;2.63;1.88;;;;;;;-141.50;100.00;63355.56;4914176;29;20163;-83
2024/03/28 02:04:25;;;;;;;2.47;1.50;;;;;;;-141.50;100.00;63355.56;4919370;29;20059;-83
2024/03/28 02:06:51;;;;;;;2.08;1.48;;;;;;;-141.50;100.00;63355.56;4931240;29;20108;-83
2024/03/28 02:09:19;;;;;;;4.40;1.08;;;;;;;-141.50;100.00;63355.56;4930609;29;20102;-85
2024/03/28 02:11:45;;;;;;;1.83;1.20;;;;;;;-141.50;100.00;63355.56;4918895;29;20643;-83
2024/03/28 02:14:11;;;;;;;1.83;1.10;;;;;;;-141.50;100.00;63355.56;4918515;29;20068;-85
2024/03/28 02:16:37;;;;;;;1.67;1.10;;;;;;;-141.50;100.00;63355.56;4918851;29;20054;-81
2024/03/28 02:19:04;;;;;;;1.30;0.73;;;;;;;-141.50;100.00;63355.56;4934689;29;20326;-81
2024/03/28 02:21:30;;;;;;;1.23;0.80;;;;;;;-141.50;100.00;63355.56;4922774;29;20472;-81
2024/03/28 02:23:57;;;;;;;1.17;0.70;;;;;;;-141.50;100.00;63355.56;4921646;29;20102;-85
2024/03/28 02:26:24;;;;;;;0.93;0.63;;;;;;;-141.50;100.00;63355.56;4919786;29;20086;-83
2024/03/28 02:28:51;;;;;;;0.70;0.52;;;;;;;-141.50;100.00;63355.56;4918828;29;20059;-84
2024/03/28 02:31:17;;;;;;;1.05;0.60;;;;;;;-141.50;100.00;63355.56;4921335;29;20050;-83
2024/03/28 02:33:43;;;;;;;1.20;0.50;;;;;;;-141.50;100.00;63355.56;4918718;29;20063;-84
2024/03/28 02:36:09;;;;;;;2.15;0.50;;;;;;;-141.50;100.00;63355.56;4911767;29;20056;-80
2024/03/28 02:38:38;;;;;;;0.98;0.68;;;;;;;-141.50;100.00;63355.56;4917162;29;20063;-80
2024/03/28 02:41:04;;;;;;;1.25;0.47;;;;;;;-141.50;100.00;63355.56;4921725;29;20051;-80
2024/03/28 02:43:31;;;;;;;1.33;0.57;;;;;;;-141.50;100.00;63355.56;4919077;29;20143;-84
2024/03/28 02:45:57;;;;;;;0.90;0.40;;;;;;;-141.50;100.00;63355.56;4921854;29;20535;-83
2024/03/28 02:48:23;;;;;;;0.60;0.47;;;;;;;-141.50;100.00;63355.56;4921749;29;20134;-85
2024/03/28 02:50:49;;;;;;;0.63;0.50;;;;;;;-141.50;100.00;63355.56;4907497;29;20050;-84
2024/03/28 02:53:15;;;;;;;0.80;0.40;;;;;;;-141.50;100.00;63355.56;4921166;29;20055;-83
2024/03/28 02:55:42;;;;;;;0.55;0.40;;;;;;;-141.50;100.00;63355.56;4921247;29;20106;-86
2024/03/28 02:58:08;;;;;;;0.47;0.30;;;;;;;-141.50;100.00;63355.56;4936860;29;20441;-85
2024/03/28 03:00:34;;;;;;;0.65;0.47;;;;;;;-141.50;100.00;63355.56;4918842;29;20055;-82
2024/03/28 03:03:01;;;;;;;1.13;0.40;;;;;;;-141.50;100.00;63355.56;4915759;29;20052;-83
2024/03/28 03:05:28;;;;;;;1.10;0.52;;;;;;;-141.50;100.00;63355.56;4919796;29;20393;-83
2024/03/28 03:07:54;;;;;;;0.50;0.40;;;;;;;-141.50;100.00;63355.56;4916747;29;20063;-85
2024/03/28 03:10:20;;;;;;;0.52;0.40;;;;;;;-141.50;100.00;63355.56;4916442;29;20040;-84
2024/03/28 03:12:46;;;;;;;0.65;0.40;;;;;;;-141.50;100.00;63355.56;4914395;29;20088;-84
2024/03/28 03:15:12;;;;;;;0.50;0.40;;;;;;;-141.50;100.00;63355.56;4919042;28;20064;-86
2024/03/28 03:17:38;;;;;;;0.80;0.40;;;;;;;-141.50;100.00;63355.56;4921231;29;20493;-84
2024/03/28 03:20:08;;;;;;;0.60;0.32;;;;;;;-141.50;100.00;63355.56;4919221;29;20138;-84
2024/03/28 03:22:39;;;;;;;0.65;0.50;;;;;;;-141.50;100.00;63355.56;4919614;29;20138;-84
2024/03/28 03:25:13;;;;;;;0.40;0.40;;;;;;;-141.50;100.00;63355.56;4919738;29;20090;-82
2024/03/28 03:35:54;;;;;;;0.60;0.40;;;;;;;-141.50;100.00;63355.56;4922188;29;20512;-84
2024/03/28 03:38:20;;;;;;;0.82;0.63;;;;;;;-141.50;100.00;63355.56;4896133;29;20146;-82
2024/03/28 03:40:46;;;;;;;1.23;0.60;;;;;;;-141.50;100.00;63355.56;4921271;29;20146;-81
2024/03/28 03:43:12;;;;;;;1.95;0.70;;;;;;;-141.50;100.00;63355.56;4919566;28;20060;-83
2024/03/28 03:45:38;;;;;;;0.95;0.50;;;;;;;-141.50;100.00;63355.56;4919623;29;20476;-82
2024/03/28 03:48:04;;;;;;;1.02;0.38;;;;;;;-141.50;100.00;63355.56;4919362;29;20059;-83
2024/03/28 03:50:30;;;;;;;0.75;0.50;;;;;;;-141.50;100.00;63355.56;4921502;29;20059;-84
2024/03/28 03:52:56;;;;;;;0.55;0.50;;;;;;;-141.50;100.00;63355.56;4921336;29;20508;-85
2024/03/28 03:55:22;;;;;;;0.55;0.35;;;;;;;-141.50;100.00;63355.56;4940910;28;20055;-83
2024/03/28 03:57:49;;;;;;;3.03;0.63;;;;;;;-141.50;100.00;63355.56;4926584;29;20138;-82
2024/03/28 04:00:15;;;;;;;0.73;0.40;;;;;;;-141.50;100.00;63355.56;4917885;28;20122;-82
2024/03/28 04:02:42;;;;;;;0.65;0.50;;;;;;;-141.50;100.00;63355.56;4923151;29;20087;-81
2024/03/28 04:05:08;;;;;;;0.70;0.40;;;;;;;-141.50;100.00;63355.56;4905269;29;20076;-82
2024/03/28 04:07:34;;;;;;;0.70;0.50;;;;;;;-141.50;100.00;63355.56;4922447;29;20043;-83
2024/03/28 04:10:00;;;;;;;1.88;0.35;;;;;;;-141.50;100.00;63355.56;4918940;29;20051;-82
2024/03/28 04:12:26;;;;;;;0.80;0.28;;;;;;;-141.50;100.00;63355.56;4932567;29;20139;-83
2024/03/28 04:14:52;;;;;;;1.60;0.80;;;;;;;-141.50;100.00;63355.56;4921919;29;20773;-83
2024/03/28 04:17:18;;;;;;;1.27;0.60;;;;;;;-141.50;100.00;63355.56;4920896;29;20103;-82
2024/03/28 04:19:44;;;;;;;1.48;0.57;;;;;;;-141.50;100.00;63355.56;4920406;29;20119;-82
2024/03/28 04:22:11;;;;;;;0.60;0.50;;;;;;;-141.50;100.00;63355.56;4920933;29;20087;-81
2024/03/28 04:24:38;;;;;;;1.88;0.60;;;;;;;-141.50;100.00;63355.56;4924910;29;20098;-82
2024/03/28 04:27:04;;;;;;;0.88;0.60;;;;;;;-141.50;100.00;63355.56;4919343;28;20064;-82
2024/03/28 04:29:32;;;;;;;1.45;0.95;;;;;;;-141.50;100.00;63355.56;4921455;29;20083;-82
2024/03/28 04:31:58;;;;;;;0.80;0.60;;;;;;;-141.50;100.00;63355.56;4917854;29;20564;-83
2024/03/28 04:34:24;;;;;;;2.03;0.80;;;;;;;-141.50;100.00;63355.56;4918805;29;20052;-84
2024/03/28 04:36:50;;;;;;;1.52;0.52;;;;;;;-141.50;100.00;63355.56;4919281;29;20051;-84
2024/03/28 04:39:15;;;;;;;1.05;0.52;;;;;;;-141.50;100.00;63355.56;4920276;29;20750;-86
2024/03/28 04:41:41;;;;;;;1.10;0.70;;;;;;;-141.50;100.00;63355.56;4918832;29;20146;-86
2024/03/28 04:44:07;;;;;;;0.88;0.60;;;;;;;-141.50;100.00;63355.56;4932417;28;20082;-84
2024/03/28 04:46:33;;;;;;;1.20;0.57;;;;;;;-141.50;100.00;63355.56;4919602;29;20142;-84
2024/03/28 04:48:59;;;;;;;1.40;0.70;;;;;;;-141.50;100.00;63355.56;4918961;29;20052;-83
2024/03/28 04:51:26;;;;;;;1.95;0.70;;;;;;;-141.50;100.00;63355.56;4923023;29;20051;-82
2024/03/28 04:53:52;;;;;;;1.95;0.68;;;;;;;-141.50;100.00;63355.56;4935236;28;20083;-86
2024/03/28 04:56:18;;;;;;;1.30;0.80;;;;;;;-141.50;100.00;63355.56;4915102;29;20072;-83
2024/03/28 04:58:44;;;;;;;4.05;1.00;;;;;;;-141.50;100.00;63355.56;4918913;29;20152;-82
2024/03/28 05:01:10;;;;;;;1.55;1.15;;;;;;;-141.50;100.00;63355.56;4916377;29;20052;-84
2024/03/28 05:03:36;;;;;;;1.63;0.95;;;;;;;-141.50;100.00;63355.56;4917802;29;20139;-82
2024/03/28 05:06:02;;;;;;;1.83;1.10;;;;;;;-141.50;100.00;63355.56;4916807;29;20056;-82
2024/03/28 05:08:31;;;;;;;2.67;1.40;;;;;;;-141.50;100.00;63355.56;4933279;29;20055;-83
2024/03/28 05:10:58;;;;;;;2.05;1.10;;;;;;;-141.50;100.00;63355.56;4931976;28;20044;-83
2024/03/28 05:13:24;;;;;;;5.32;1.00;;;;;;;-141.50;100.00;63355.56;4916880;29;20058;-83
2024/03/28 05:15:50;;;;;;;2.17;1.00;;;;;;;-141.50;100.00;63355.56;4931619;28;20071;-84
2024/03/28 05:18:16;;;;;;;1.30;0.80;;;;;;;-141.50;100.00;63355.56;4918162;28;20059;-84
2024/03/28 05:20:42;;;;;;;1.83;1.00;;;;;;;-141.50;100.00;63355.56;4919765;29;20138;-84
2024/03/28 05:23:11;;;;;;;3.33;0.90;;;;;;;-141.50;100.00;63355.56;4913735;28;20075;-83
2024/03/28 05:25:37;;;;;;;2.30;1.10;;;;;;;-141.50;100.00;63355.56;4936091;29;20103;-86
2024/03/28 05:28:03;;;;;;;1.10;0.80;;;;;;;-141.50;100.00;63355.56;4919752;29;20413;-84
2024/03/28 05:30:29;;;;;;;1.55;1.05;;;;;;;-141.50;100.00;63355.56;4911614;29;20095;-85
2024/03/28 05:32:55;;;;;;;1.67;1.00;;;;;;;-141.50;100.00;63355.56;4915198;29;20056;-82
2024/03/28 05:35:21;;;;;;;2.00;1.10;;;;;;;-141.50;100.00;63355.56;4909793;29;20047;-83
2024/03/28 05:37:47;;;;;;;1.75;1.15;;;;;;;-141.50;100.00;63355.56;4915257;29;20052;-84
2024/03/28 05:40:13;;;;;;;2.10;0.90;;;;;;;-141.50;100.00;63355.56;4913354;29;20071;-84
2024/03/28 05:42:39;;;;;;;2.45;1.27;;;;;;;-141.50;100.00;63355.56;4915561;29;20607;-81
2024/03/28 05:45:05;;;;;;;2.05;1.10;;;;;;;-141.50;100.00;63355.56;4934450;28;20112;-85
2024/03/28 05:47:31;;;;;;;3.08;1.40;;;;;;;-141.50;100.00;63355.56;4914375;29;20060;-84
2024/03/28 05:49:57;;;;;;;3.28;1.35;;;;;;;-141.50;100.00;63355.56;4914963;28;20071;-85
2024/03/28 05:52:23;;;;;;;3.55;1.73;;;;;;;-141.50;100.00;63355.56;4930051;28;20099;-85
2024/03/28 05:54:51;;;;;;;2.60;1.48;;;;;;;-141.50;100.00;63355.56;4917309;29;20055;-84
2024/03/28 05:57:17;;;;;;;2.63;1.42;;;;;;;-141.50;100.00;63355.56;4911237;29;20048;-86
2024/03/28 05:59:44;;;;;;;2.70;1.48;;;;;;;-141.50;100.00;63355.56;4931245;28;20059;-83
2024/03/28 06:02:09;;;;;;;2.58;1.88;;;;;;;-141.50;100.00;63355.56;4917120;29;20062;-85
2024/03/28 06:04:35;;;;;;;4.10;2.20;;;;;;;-141.50;100.00;63355.56;4913123;29;20052;-84
2024/03/28 06:07:01;;;;;;;2.90;1.77;;;;;;;-141.50;100.00;63355.56;4917653;29;20082;-84
2024/03/28 06:09:30;;;;;;;3.10;1.90;;;;;;;-141.50;100.00;63355.56;4923380;29;20604;-80
2024/03/28 06:11:57;;;;;;;3.65;1.80;;;;;;;-141.50;100.00;63355.56;4931202;29;20052;-84
2024/03/28 06:14:22;;;;;;;4.15;2.20;;;;;;;-141.50;100.00;63355.56;4921040;29;20535;-82
2024/03/28 06:16:49;;;;;;;5.00;2.13;;;;;;;-141.50;100.00;63355.56;4934211;29;20072;-83
2024/03/28 06:19:14;;;;;;;4.50;2.53;;;;;;;-141.50;100.00;63355.56;4917454;29;20058;-81
2024/03/28 06:21:43;;;;;;;6.45;2.60;;;;;;;-141.50;100.00;63355.56;4912105;29;20056;-84
2024/03/28 06:24:09;;;;;;;6.50;2.47;;;;;;;-141.50;100.00;63355.56;4915181;29;20075;-83
2024/03/28 06:26:36;;;;;;;5.53;2.60;;;;;;;-141.50;100.00;63355.56;4912832;29;20063;-83
2024/03/28 06:29:02;;;;;;;3.65;2.25;;;;;;;-141.50;100.00;63355.56;4918358;29;20079;-84
2024/03/28 06:31:28;;;;;;;5.18;2.50;;;;;;;-141.50;100.00;63355.56;4918936;29;20103;-86
2024/03/28 06:33:57;;;;;;;6.35;2.33;;;;;;;-141.50;100.00;63355.56;4920069;29;20066;-84
2024/03/28 06:36:26;;;;;;;4.82;2.55;;;;;;;-141.50;100.00;63355.56;4918812;29;20052;-83
2024/03/28 06:38:52;;;;;;;4.65;2.38;;;;;;;-141.50;100.00;63355.56;4926421;29;20576;-84
2024/03/28 06:41:18;;;;;;;3.92;2.50;;;;;;;-141.50;100.00;63355.56;4918977;29;20052;-85
2024/03/28 06:43:48;;;;;;;3.70;2.25;;;;;;;-141.50;100.00;63355.56;4923490;29;20055;-85
2024/03/28 06:46:14;;;;;;;5.50;2.40;;;;;;;-141.50;100.00;63355.56;4925021;28;20206;-84
2024/03/28 06:48:40;;;;;;;4.70;2.30;;;;;;;-141.50;100.00;63355.56;4921584;29;20119;-84
2024/03/28 06:51:06;;;;;;;6.53;2.60;;;;;;;-141.50;100.00;63355.56;4919872;29;20039;-84
2024/03/28 06:53:32;;;;;;;4.28;2.55;;;;;;;-141.50;100.00;63355.56;4920182;29;20062;-84
2024/03/28 06:55:58;;;;;;;4.22;2.28;;;;;;;-141.50;100.00;63355.56;4916931;29;20126;-82
2024/03/28 06:58:24;;;;;;;5.07;2.70;;;;;;;-141.50;100.00;63355.56;4922118;29;20052;-83
2024/03/28 07:01:00;;;;;;;3.88;2.30;;;;;;;-141.50;100.00;63355.56;4922315;29;20055;-83
2024/03/28 07:03:26;;;;;;;6.55;2.85;;;;;;;-141.50;100.00;63355.56;4913920;28;20055;-84
2024/03/28 07:05:52;;;;;;;6.40;2.95;;;;;;;-141.50;100.00;63355.56;4914375;29;20055;-83
2024/03/28 07:08:17;;;;;;;6.75;2.67;;;;;;;-141.50;100.00;63355.56;4924976;29;20036;-85
2024/03/28 07:10:43;;;;;;;5.45;2.80;;;;;;;-141.50;100.00;63355.56;4911699;29;20062;-84
2024/03/28 07:13:09;;;;;;;4.75;2.58;;;;;;;-141.50;100.00;63355.56;4931846;28;20055;-85
2024/03/28 07:15:35;;;;;;;5.63;3.10;;;;;;;-141.50;100.00;63355.56;4916719;29;20118;-83
2024/03/28 07:18:01;;;;;;;5.20;2.85;;;;;;;-141.50;100.00;63355.56;4908642;29;20055;-82
2024/03/28 07:20:27;;;;;;;4.60;2.63;;;;;;;-141.50;100.00;63355.56;4903078;29;20151;-83
2024/03/28 07:22:53;;;;;;;7.53;3.25;;;;;;;-141.50;100.00;63355.56;4920113;29;20118;-83
2024/03/28 07:25:19;;;;;;;5.80;2.88;;;;;;;-141.50;100.00;63355.56;4917808;29;20047;-83
2024/03/28 07:27:44;;;;;;;5.25;2.63;;;;;;;-141.50;100.00;63355.56;4910981;29;20055;-84
2024/03/28 07:30:11;;;;;;;5.72;3.25;;;;;;;-141.50;100.00;63355.56;4906822;29;20203;-87
2024/03/28 07:32:37;;;;;;;6.15;2.95;;;;;;;-141.50;100.00;63355.56;4915876;29;20056;-83
2024/03/28 07:35:03;;;;;;;4.15;3.03;;;;;;;-141.50;100.00;63355.56;4916685;29;20516;-84
2024/03/28 07:37:29;;;;;;;5.25;3.00;;;;;;;-141.50;100.00;63355.56;4918058;29;20054;-85
2024/03/28 07:39:56;;;;;;;5.45;2.85;;;;;;;-141.50;100.00;63355.56;4936188;29;20192;-85
2024/03/28 07:42:22;;;;;;;4.40;2.90;;;;;;;-141.50;100.00;63355.56;4918260;29;20119;-84
2024/03/28 07:44:47;;;;;;;7.50;2.80;;;;;;;-141.50;100.00;63355.56;4915582;29;20504;-84
2024/03/28 07:47:13;;;;;;;5.47;3.00;;;;;;;-141.50;100.00;63355.56;4913683;29;20677;-84
2024/03/28 07:49:40;;;;;;;5.88;3.10;;;;;;;-141.50;100.00;63355.56;4911658;29;20524;-85
2024/03/28 07:52:06;;;;;;;5.95;2.70;;;;;;;-141.50;100.00;63355.56;4911264;28;20509;-87
2024/03/28 07:54:32;;;;;;;6.78;2.88;;;;;;;-141.50;100.00;63355.56;4916311;29;20047;-85
2024/03/28 07:56:58;;;;;;;4.30;2.88;;;;;;;-141.50;100.00;63355.56;4917462;29;20148;-87
2024/03/28 07:59:23;;;;;;;4.05;2.60;;;;;;;-141.50;100.00;63355.56;4916438;29;20139;-86
2024/03/28 08:01:49;;;;;;;4.85;2.50;;;;;;;-141.50;100.00;63355.56;4909310;29;20143;-86
2024/03/28 08:04:16;;;;;;;5.50;2.20;;;;;;;-141.50;100.00;63355.56;4910602;28;20456;-87
2024/03/28 08:06:42;;;;;;;4.03;2.28;;;;;;;-141.50;100.00;63355.56;4930621;28;20052;-84
2024/03/28 08:09:09;;;;;;;3.47;2.08;;;;;;;-141.50;100.00;63355.56;4916150;29;20064;-85
2024/03/28 08:11:35;;;;;;;3.03;2.10;;;;;;;-141.50;100.00;63355.56;4915370;29;20055;-84
2024/03/28 08:14:01;;;;;;;5.28;2.28;;;;;;;-141.50;100.00;63355.56;4924690;29;20058;-86
2024/03/28 08:16:26;;;;;;;3.03;2.05;;;;;;;-141.50;100.00;63355.56;4932226;29;20047;-85
2024/03/28 08:18:53;;;;;;;3.90;2.20;;;;;;;-141.50;100.00;63355.56;4914567;29;20039;-86
2024/03/28 08:21:19;;;;;;;5.18;1.98;;;;;;;-141.50;100.00;63355.56;4916675;29;20063;-88
2024/03/28 08:23:45;;;;;;;3.45;1.95;;;;;;;-141.50;100.00;63355.56;4913330;29;20568;-83
2024/03/28 08:26:11;;;;;;;2.33;1.65;;;;;;;-141.50;100.00;63355.56;4913766;29;20059;-83
2024/03/28 08:28:37;;;;;;;5.85;1.88;;;;;;;-141.50;100.00;63355.56;4915902;29;20126;-84
2024/03/28 08:31:06;;;;;;;3.00;1.98;;;;;;;-141.50;100.00;63355.56;4910971;28;20056;-86
2024/03/28 08:33:35;;;;;;;3.58;2.03;;;;;;;-141.50;100.00;63355.56;4916322;29;20048;-85
2024/03/28 08:36:02;;;;;;;3.33;2.10;;;;;;;-141.50;100.00;63355.56;4907088;29;20133;-86
2024/03/28 08:38:28;;;;;;;3.33;1.90;;;;;;;-141.50;100.00;63355.56;4915827;29;20082;-84
2024/03/28 08:40:54;;;;;;;3.55;1.73;;;;;;;-141.50;100.00;63355.56;4916020;29;20039;-84
2024/03/28 08:43:20;;;;;;;2.28;1.70;;;;;;;-141.50;100.00;63355.56;4926661;29;20067;-83
2024/03/28 08:45:47;;;;;;;3.33;1.98;;;;;;;-141.50;100.00;63355.56;4916259;29;20054;-83
2024/03/28 08:48:13;;;;;;;3.70;1.90;;;;;;;-141.50;100.00;63355.56;4920680;28;20056;-88
2024/03/28 09:03:56;;;;;;;3.78;1.90;;;;;;;-141.50;100.00;63355.56;4924313;29;20164;-86
2024/03/28 09:06:23;;;;;;;3.08;1.60;;;;;;;-141.50;100.00;63355.56;4913881;29;20415;-83
2024/03/28 09:08:50;;;;;;;2.88;1.85;;;;;;;-141.50;100.00;63355.56;4919938;29;20059;-84
2024/03/28 09:11:16;;;;;;;3.60;1.67;;;;;;;-141.50;100.00;63355.56;4915670;29;20051;-84
2024/03/28 09:13:42;;;;;;;3.40;1.67;;;;;;;-141.50;100.00;63355.56;4897741;29;20091;-83
2024/03/28 09:16:08;;;;;;;3.28;1.60;;;;;;;-141.50;100.00;63355.56;4916008;29;20059;-83
2024/03/28 09:18:34;;;;;;;3.95;1.80;;;;;;;-141.50;100.00;63355.56;4913263;29;20083;-85
2024/03/28 09:21:08;;;;;;;3.08;1.65;;;;;;;-141.50;100.00;63355.56;4915136;29;20044;-84
2024/03/28 09:23:34;;;;;;;3.03;1.55;;;;;;;-141.50;100.00;63355.56;4915439;29;20068;-87
2024/03/28 09:26:01;;;;;;;2.58;1.58;;;;;;;-141.50;100.00;63355.56;4914957;29;20043;-88
2024/03/28 09:28:27;;;;;;;2.15;1.40;;;;;;;-141.50;100.00;63355.56;4921131;28;20073;-87
2024/03/28 09:30:54;;;;;;;3.75;1.60;;;;;;;-141.50;100.00;63355.56;4917849;29;20048;-85
2024/03/28 09:33:20;;;;;;;2.15;1.40;;;;;;;-141.50;100.00;63355.56;4912539;29;20060;-86
2024/03/28 09:35:49;;;;;;;1.98;1.30;;;;;;;-141.50;100.00;63355.56;4913048;29;20059;-87
2024/03/28 09:38:14;;;;;;;3.47;1.60;;;;;;;-141.50;100.00;63355.56;4913970;29;20834;-86
2024/03/28 09:41:25;;;;;;;2.38;1.30;;;;;;;-141.50;100.00;63355.56;4917145;29;20079;-85
2024/03/28 09:44:10;;;;;;;3.60;1.55;;;;;;;-141.50;100.00;63355.56;4914728;29;20062;-87
2024/03/28 09:46:41;;;;;;;2.40;1.40;;;;;;;-141.50;100.00;63355.56;4931673;29;20074;-83
2024/03/28 09:49:08;;;;;;;1.50;1.13;;;;;;;-141.50;100.00;63355.56;4915427;29;20051;-85
2024/03/28 09:51:38;;;;;;;2.10;0.85;;;;;;;-141.50;100.00;63355.56;4916042;29;20170;-86
2024/03/28 09:54:06;;;;;;;2.10;1.00;;;;;;;-141.50;100.00;63355.56;4915401;29;20107;-86
2024/03/28 09:56:33;;;;;;;1.70;0.80;;;;;;;-141.50;100.00;63355.56;4915570;29;20058;-82
2024/03/28 09:59:00;;;;;;;1.13;0.70;;;;;;;-141.50;100.00;63355.56;4916517;29;20620;-84
2024/03/28 10:01:28;;;;;;;2.17;1.17;;;;;;;-141.50;100.00;63355.56;4913022;29;20131;-83
2024/03/28 10:04:04;;;;;;;1.67;0.73;;;;;;;-141.50;100.00;63355.56;4917518;29;20497;-84
2024/03/28 10:06:35;;;;;;;2.22;0.80;;;;;;;-141.50;100.00;63355.56;4908527;29;20090;-83
2024/03/28 10:09:02;;;;;;;1.88;0.70;;;;;;;-141.50;100.00;63355.56;4907040;29;20084;-83
2024/03/28 10:11:28;;;;;;;0.95;0.60;;;;;;;-141.50;100.00;63355.56;4915618;29;20437;-83
2024/03/28 10:14:10;;;;;;;0.85;0.70;;;;;;;-141.50;100.00;63355.56;4910326;29;20067;-83
2024/03/28 10:16:37;;;;;;;1.55;0.60;;;;;;;-141.50;100.00;63355.56;4903949;29;20051;-84
2024/03/28 10:19:05;;;;;;;0.93;0.55;;;;;;;-141.50;100.00;63355.56;4908099;29;20416;-85
2024/03/28 10:21:32;;;;;;;0.80;0.60;;;;;;;-141.50;100.00;63355.56;4896722;29;20044;-85
2024/03/28 10:23:58;;;;;;;1.63;0.50;;;;;;;-141.50;100.00;63355.56;4904176;28;20055;-86
2024/03/28 10:26:29;;;;;;;0.90;0.40;;;;;;;-141.50;100.00;63355.56;4904012;29;20052;-85
2024/03/28 10:28:54;;;;;;;0.80;0.50;;;;;;;-141.50;100.00;63355.56;4915554;28;20054;-84
2024/03/28 10:31:25;;;;;;;0.85;0.38;;;;;;;-141.50;100.00;63355.56;4903966;29;20039;-83
2024/03/28 10:33:54;;;;;;;0.40;0.30;;;;;;;-141.50;100.00;63355.56;4915559;29;20044;-85
2024/03/28 10:36:24;;;;;;;2.17;0.30;;;;;;;-141.50;100.00;63355.56;4903845;29;20095;-85
2024/03/28 10:39:03;;;;;;;0.85;0.35;;;;;;;-141.50;100.00;63355.56;4907966;29;20047;-85
2024/03/28 10:41:33;;;;;;;0.90;0.30;;;;;;;-141.50;100.00;63355.56;4921681;29;20060;-83
2024/03/28 10:44:00;;;;;;;1.27;0.50;;;;;;;-141.50;100.00;63355.56;4918967;29;20560;-84
2024/03/28 10:46:31;;;;;;;0.52;0.40;;;;;;;-141.50;100.00;63355.56;4934674;28;20055;-84
2024/03/28 10:49:05;;;;;;;1.35;0.38;;;;;;;-141.50;100.00;63355.56;4912996;29;20666;-85
2024/03/28 10:51:44;;;;;;;1.67;0.30;;;;;;;-141.50;100.00;63355.56;4934631;29;20473;-83
2024/03/28 10:54:18;;;;;;;1.23;0.55;;;;;;;-141.50;100.00;63355.56;4917556;29;20147;-84
2024/03/28 10:56:46;;;;;;;1.10;0.30;;;;;;;-141.50;100.00;63355.56;4918437;29;20484;-83
2024/03/28 10:59:14;;;;;;;2.05;0.40;;;;;;;-141.50;100.00;63355.56;4898362;29;20055;-85
2024/03/28 11:01:43;;;;;;;1.98;0.50;;;;;;;-141.50;100.00;63355.56;4920769;29;20076;-84
2024/03/28 11:04:11;;;;;;;0.55;0.30;;;;;;;-141.50;100.00;63355.56;4906832;29;20174;-86
2024/03/28 11:06:38;;;;;;;0.95;0.40;;;;;;;-141.50;100.00;63355.56;4911798;29;20059;-85
2024/03/28 11:09:08;;;;;;;2.28;0.57;;;;;;;-141.50;100.00;63355.56;4903860;28;20409;-84
2024/03/28 11:11:34;;;;;;;0.32;0.30;;;;;;;-141.50;100.00;63355.56;4912179;29;20154;-85
2024/03/28 11:14:00;;;;;;;0.82;0.38;;;;;;;-141.50;100.00;63355.56;4907799;29;20410;-83
2024/03/28 11:16:26;;;;;;;0.95;0.35;;;;;;;-141.50;100.00;63355.56;4896500;29;20055;-83
2024/03/28 11:18:59;;;;;;;1.50;0.40;;;;;;;-141.50;100.00;63355.56;4930495;29;20083;-84
2024/03/28 11:21:26;;;;;;;0.73;0.30;;;;;;;-141.50;100.00;63355.56;4915744;29;20433;-84
2024/03/28 11:23:53;;;;;;;0.88;0.40;;;;;;;-141.50;100.00;63355.56;4934216;29;20186;-84
2024/03/28 11:26:24;;;;;;;2.30;0.45;;;;;;;-141.50;100.00;63355.56;4916042;29;20897;-85
2024/03/28 11:29:05;;;;;;;0.63;0.40;;;;;;;-141.50;100.00;63355.56;4914941;29;20087;-84
2024/03/28 11:31:32;;;;;;;0.80;0.50;;;;;;;-141.50;100.00;63355.56;4931614;29;20079;-84